Time;durP1;ratioP1;P1;durP2;ratioP2;P2;SDS_P1;SDS_P2;PMS_P1;PMS_P2;Temp;Humidity;BMP_temperature;BMP_pressure;BME280_temperature;BME280_humidity;BME280_pressure;Samples;Min_cycle;Max_cycle;Signal;HPM_P1;HPM_P2
2023/05/03 00:00:17;;;;;;;6.38;3.20;;;;;;;;;;6182651;23;20025;-83
2023/05/03 00:02:43;;;;;;;6.75;3.78;;;;;;;;;;6182477;23;20059;-83
2023/05/03 00:05:13;;;;;;;8.57;4.00;;;;;;;;;;6182248;23;20456;-82
2023/05/03 00:07:44;;;;;;;7.70;4.20;;;;;;;;;;6182138;23;20020;-83
2023/05/03 00:10:12;;;;;;;9.25;4.65;;;;;;;;;;6156392;23;20020;-82
2023/05/03 00:12:39;;;;;;;10.32;4.53;;;;;;;;;;6156090;23;20135;-82
2023/05/03 00:15:05;;;;;;;8.35;4.18;;;;;;;;;;6182197;23;20021;-83
2023/05/03 00:17:31;;;;;;;9.60;4.30;;;;;;;;;;6156071;23;20017;-83
2023/05/03 00:19:58;;;;;;;5.50;3.70;;;;;;;;;;6156122;23;20452;-83
2023/05/03 00:22:24;;;;;;;16.23;4.70;;;;;;;;;;6182360;23;20108;-83
2023/05/03 00:24:50;;;;;;;10.02;4.82;;;;;;;;;;6155931;23;20012;-83
2023/05/03 00:27:17;;;;;;;7.30;4.43;;;;;;;;;;6155956;23;20028;-82
2023/05/03 00:29:43;;;;;;;6.28;4.38;;;;;;;;;;6182862;23;20386;-82
2023/05/03 00:32:09;;;;;;;8.43;4.78;;;;;;;;;;6182607;23;20012;-83
2023/05/03 00:34:36;;;;;;;7.82;4.70;;;;;;;;;;6131295;23;20147;-83
2023/05/03 00:37:02;;;;;;;7.10;4.47;;;;;;;;;;6182377;23;20036;-83
2023/05/03 00:39:31;;;;;;;10.13;4.70;;;;;;;;;;6155875;23;20016;-83
2023/05/03 00:42:01;;;;;;;8.15;5.03;;;;;;;;;;6156093;23;20083;-83
2023/05/03 00:44:27;;;;;;;9.63;4.38;;;;;;;;;;6156070;23;20017;-83
2023/05/03 00:46:54;;;;;;;8.85;4.80;;;;;;;;;;6156199;23;20083;-83
2023/05/03 00:49:20;;;;;;;10.65;5.30;;;;;;;;;;6156398;23;20432;-84
2023/05/03 00:51:46;;;;;;;10.27;5.25;;;;;;;;;;6182196;23;20067;-83
2023/05/03 00:54:12;;;;;;;12.80;5.15;;;;;;;;;;6182851;23;20371;-83
2023/05/03 00:56:39;;;;;;;5.93;4.45;;;;;;;;;;6156199;23;20019;-83
2023/05/03 00:59:08;;;;;;;11.00;5.55;;;;;;;;;;6156075;23;20366;-83
2023/05/03 01:01:34;;;;;;;9.52;5.22;;;;;;;;;;6156124;23;20013;-83
2023/05/03 01:04:00;;;;;;;9.82;5.43;;;;;;;;;;6182631;23;20009;-83
2023/05/03 01:06:30;;;;;;;8.88;5.53;;;;;;;;;;6182297;23;20013;-82
2023/05/03 01:09:17;;;;;;;11.30;5.53;;;;;;;;;;6182825;23;20076;-83
2023/05/03 01:11:47;;;;;;;13.20;5.30;;;;;;;;;;6183076;23;20017;-83
2023/05/03 01:14:43;;;;;;;10.32;5.53;;;;;;;;;;6150922;23;20060;-84
2023/05/03 01:17:12;;;;;;;9.25;5.78;;;;;;;;;;6038321;23;20153;-83
2023/05/03 01:19:55;;;;;;;9.15;5.95;;;;;;;;;;6061918;23;20015;-83
2023/05/03 01:22:33;;;;;;;9.63;5.05;;;;;;;;;;6038619;23;20019;-83
2023/05/03 01:25:05;;;;;;;13.38;6.32;;;;;;;;;;6062427;23;20146;-83
2023/05/03 01:27:31;;;;;;;9.18;5.40;;;;;;;;;;6038628;23;20354;-83
2023/05/03 01:29:57;;;;;;;10.57;5.45;;;;;;;;;;6038553;23;20025;-83
2023/05/03 01:32:25;;;;;;;9.25;5.35;;;;;;;;;;6038576;23;20030;-83
2023/05/03 01:34:54;;;;;;;9.93;5.70;;;;;;;;;;6037993;23;20070;-83
2023/05/03 01:37:21;;;;;;;9.20;5.07;;;;;;;;;;6038597;23;20014;-83
2023/05/03 01:39:52;;;;;;;9.07;5.50;;;;;;;;;;6038498;23;20023;-83
2023/05/03 01:42:19;;;;;;;13.60;5.75;;;;;;;;;;6038587;23;20026;-83
2023/05/03 01:44:46;;;;;;;10.38;5.40;;;;;;;;;;6038647;23;20018;-84
2023/05/03 01:47:14;;;;;;;9.02;5.20;;;;;;;;;;6064419;23;20019;-83
2023/05/03 01:49:40;;;;;;;8.48;4.75;;;;;;;;;;6039772;23;20498;-83
2023/05/03 01:52:06;;;;;;;8.90;4.80;;;;;;;;;;6064226;23;20114;-83
2023/05/03 01:54:32;;;;;;;9.02;5.50;;;;;;;;;;6143365;23;20345;-83
2023/05/03 01:56:58;;;;;;;10.65;5.00;;;;;;;;;;6152839;23;20092;-83
2023/05/03 01:59:24;;;;;;;8.50;5.40;;;;;;;;;;6152664;23;20022;-83
2023/05/03 02:01:50;;;;;;;8.50;4.88;;;;;;;;;;6154719;23;20013;-83
2023/05/03 02:04:16;;;;;;;11.27;5.20;;;;;;;;;;6152049;23;20024;-83
2023/05/03 02:06:42;;;;;;;12.40;5.00;;;;;;;;;;6152587;23;20025;-83
2023/05/03 02:09:08;;;;;;;9.07;5.05;;;;;;;;;;6154679;23;20021;-83
2023/05/03 02:11:34;;;;;;;11.43;4.70;;;;;;;;;;6154236;23;20432;-83
2023/05/03 02:14:00;;;;;;;9.43;5.43;;;;;;;;;;6174303;23;20024;-83
2023/05/03 02:16:26;;;;;;;8.45;5.15;;;;;;;;;;6157634;23;20056;-83
2023/05/03 02:18:53;;;;;;;10.93;5.18;;;;;;;;;;6156648;23;20017;-83
2023/05/03 02:21:19;;;;;;;10.30;5.15;;;;;;;;;;6184313;23;20028;-83
2023/05/03 02:23:45;;;;;;;9.50;5.20;;;;;;;;;;6184134;23;20045;-83
2023/05/03 02:26:11;;;;;;;9.73;5.35;;;;;;;;;;6184148;23;20013;-83
2023/05/03 02:28:37;;;;;;;7.70;4.90;;;;;;;;;;6157398;23;20029;-83
2023/05/03 02:31:05;;;;;;;9.60;4.90;;;;;;;;;;6184118;23;20013;-83
2023/05/03 02:33:31;;;;;;;9.82;5.43;;;;;;;;;;6183162;23;20084;-83
2023/05/03 02:35:57;;;;;;;9.30;5.55;;;;;;;;;;6157259;23;20045;-83
2023/05/03 02:38:23;;;;;;;7.60;5.32;;;;;;;;;;6132675;23;20039;-83
2023/05/03 02:40:49;;;;;;;9.40;5.30;;;;;;;;;;6157150;23;20391;-83
2023/05/03 02:43:15;;;;;;;7.50;5.40;;;;;;;;;;6157331;23;20009;-83
2023/05/03 02:45:42;;;;;;;7.05;5.35;;;;;;;;;;6157058;23;20093;-83
2023/05/03 02:48:08;;;;;;;11.90;6.13;;;;;;;;;;6183242;23;20017;-84
2023/05/03 02:50:34;;;;;;;10.20;5.80;;;;;;;;;;6157094;23;20428;-83
2023/05/03 02:53:01;;;;;;;8.68;5.93;;;;;;;;;;6183991;23;20017;-83
2023/05/03 02:55:27;;;;;;;7.72;6.22;;;;;;;;;;6183172;23;20140;-83
2023/05/03 02:57:53;;;;;;;9.63;6.50;;;;;;;;;;6156810;23;20297;-83
2023/05/03 03:00:19;;;;;;;9.55;6.63;;;;;;;;;;6156709;23;20088;-83
2023/05/03 03:02:45;;;;;;;10.40;6.10;;;;;;;;;;6156180;23;20017;-83
2023/05/03 03:05:11;;;;;;;10.95;6.53;;;;;;;;;;6156583;23;20044;-83
2023/05/03 03:07:38;;;;;;;9.40;6.47;;;;;;;;;;6156717;23;20360;-83
2023/05/03 03:10:04;;;;;;;11.20;6.68;;;;;;;;;;6156735;23;20117;-83
2023/05/03 03:12:30;;;;;;;10.35;6.40;;;;;;;;;;6156377;23;20471;-83
2023/05/03 03:14:56;;;;;;;8.90;6.32;;;;;;;;;;6183306;23;20021;-83
2023/05/03 03:17:22;;;;;;;10.00;6.13;;;;;;;;;;6131373;23;20009;-83
2023/05/03 03:19:49;;;;;;;10.00;6.38;;;;;;;;;;6183180;23;20444;-83
2023/05/03 03:22:15;;;;;;;10.10;5.60;;;;;;;;;;6183262;23;20024;-83
2023/05/03 03:24:41;;;;;;;9.73;4.95;;;;;;;;;;6156473;23;20013;-83
2023/05/03 03:27:07;;;;;;;10.73;5.63;;;;;;;;;;6131884;23;20020;-83
2023/05/03 03:29:33;;;;;;;12.10;5.45;;;;;;;;;;6131905;23;20017;-83
2023/05/03 03:31:59;;;;;;;10.25;5.95;;;;;;;;;;6155856;23;20044;-83
2023/05/03 03:34:25;;;;;;;8.50;4.78;;;;;;;;;;6183318;23;20187;-83
2023/05/03 03:36:51;;;;;;;9.73;5.25;;;;;;;;;;6156580;23;20032;-83
2023/05/03 03:39:17;;;;;;;7.88;4.75;;;;;;;;;;6182929;23;20013;-83
2023/05/03 03:41:43;;;;;;;12.15;5.40;;;;;;;;;;6156116;23;20009;-83
2023/05/03 03:44:09;;;;;;;7.75;4.80;;;;;;;;;;6182571;23;20454;-83
2023/05/03 03:46:35;;;;;;;9.25;4.78;;;;;;;;;;6182515;23;20036;-84
2023/05/03 03:49:02;;;;;;;8.50;4.93;;;;;;;;;;6182988;23;20048;-83
2023/05/03 03:51:28;;;;;;;9.73;5.63;;;;;;;;;;6183295;23;20092;-83
2023/05/03 03:53:54;;;;;;;9.90;5.63;;;;;;;;;;6156001;23;20017;-82
2023/05/03 03:56:20;;;;;;;7.63;5.72;;;;;;;;;;6156384;23;20071;-83
2023/05/03 03:58:47;;;;;;;6.93;4.63;;;;;;;;;;6156683;23;20024;-82
2023/05/03 04:01:13;;;;;;;9.57;5.18;;;;;;;;;;6155759;23;20020;-83
2023/05/03 04:03:39;;;;;;;9.27;4.55;;;;;;;;;;6182928;23;20015;-83
2023/05/03 04:06:05;;;;;;;8.40;4.90;;;;;;;;;;6132179;23;20008;-83
2023/05/03 04:08:31;;;;;;;8.88;5.18;;;;;;;;;;6155831;23;20084;-83
2023/05/03 04:10:57;;;;;;;11.65;5.63;;;;;;;;;;6183000;23;20048;-83
2023/05/03 04:13:23;;;;;;;9.60;5.90;;;;;;;;;;6182462;23;20024;-83
2023/05/03 04:15:49;;;;;;;8.00;5.53;;;;;;;;;;6182343;23;20009;-83
2023/05/03 04:18:15;;;;;;;6.72;5.30;;;;;;;;;;6182784;23;20013;-83
2023/05/03 04:20:41;;;;;;;7.57;5.30;;;;;;;;;;6155984;23;20028;-83
2023/05/03 04:23:07;;;;;;;6.90;5.10;;;;;;;;;;6182288;23;20083;-83
2023/05/03 04:25:35;;;;;;;7.95;4.70;;;;;;;;;;6182502;23;20032;-84
2023/05/03 04:28:02;;;;;;;7.50;4.90;;;;;;;;;;6155906;23;20020;-84
2023/05/03 04:30:28;;;;;;;7.55;4.95;;;;;;;;;;6181950;23;20023;-83
2023/05/03 04:32:54;;;;;;;9.95;5.15;;;;;;;;;;6156373;23;20024;-83
2023/05/03 04:35:20;;;;;;;9.23;4.90;;;;;;;;;;6155903;23;20013;-83
2023/05/03 04:37:46;;;;;;;8.18;4.47;;;;;;;;;;6155959;23;20023;-83
2023/05/03 04:40:12;;;;;;;7.10;4.85;;;;;;;;;;6182367;23;20456;-83
2023/05/03 04:42:38;;;;;;;7.93;5.20;;;;;;;;;;6182023;23;20044;-83
2023/05/03 04:45:05;;;;;;;7.15;5.07;;;;;;;;;;6155811;23;20401;-83
2023/05/03 04:47:32;;;;;;;7.97;5.03;;;;;;;;;;6155986;23;20044;-83
2023/05/03 04:49:58;;;;;;;7.28;5.07;;;;;;;;;;6131620;23;20017;-83
2023/05/03 04:52:25;;;;;;;7.22;4.85;;;;;;;;;;6131370;23;20039;-83
2023/05/03 04:54:51;;;;;;;9.25;5.22;;;;;;;;;;6131194;23;20017;-83
2023/05/03 04:57:17;;;;;;;8.75;5.13;;;;;;;;;;6182368;23;20017;-83
2023/05/03 04:59:43;;;;;;;10.57;5.22;;;;;;;;;;6182576;23;20075;-83
2023/05/03 05:02:10;;;;;;;7.68;4.60;;;;;;;;;;6182613;23;20028;-83
2023/05/03 05:04:36;;;;;;;8.68;4.57;;;;;;;;;;6155673;23;20028;-83
2023/05/03 05:07:02;;;;;;;9.60;4.47;;;;;;;;;;6182365;23;20049;-83
2023/05/03 05:09:30;;;;;;;9.52;4.75;;;;;;;;;;6182507;23;20036;-83
2023/05/03 05:11:56;;;;;;;6.57;4.45;;;;;;;;;;6181852;23;20021;-83
2023/05/03 05:14:22;;;;;;;8.98;4.60;;;;;;;;;;6155446;23;20017;-83
2023/05/03 05:16:49;;;;;;;8.73;4.32;;;;;;;;;;6156394;23;20022;-83
2023/05/03 05:19:15;;;;;;;6.28;4.25;;;;;;;;;;6183201;23;20048;-83
2023/05/03 05:21:41;;;;;;;5.55;3.63;;;;;;;;;;6184323;23;20032;-83
2023/05/03 05:24:07;;;;;;;11.82;4.60;;;;;;;;;;6157847;23;20045;-83
2023/05/03 05:26:33;;;;;;;7.97;4.07;;;;;;;;;;6157280;23;20020;-83
2023/05/03 05:28:59;;;;;;;9.30;4.28;;;;;;;;;;6184712;23;20017;-83
2023/05/03 05:31:25;;;;;;;8.77;3.42;;;;;;;;;;6157875;23;20020;-83
2023/05/03 05:33:51;;;;;;;10.43;3.03;;;;;;;;;;6184691;23;20055;-83
2023/05/03 05:36:17;;;;;;;7.15;3.45;;;;;;;;;;6184972;23;20053;-83
2023/05/03 05:38:43;;;;;;;6.88;3.17;;;;;;;;;;6133614;23;20021;-83
2023/05/03 05:41:09;;;;;;;6.72;2.88;;;;;;;;;;6157928;23;20050;-83
2023/05/03 05:43:35;;;;;;;7.63;2.88;;;;;;;;;;6184692;23;20044;-83
2023/05/03 05:46:02;;;;;;;5.15;2.60;;;;;;;;;;6133478;23;20340;-81
2023/05/03 05:48:29;;;;;;;7.63;3.20;;;;;;;;;;6158009;23;20313;-81
2023/05/03 05:50:55;;;;;;;7.78;2.72;;;;;;;;;;6133746;23;20020;-80
2023/05/03 05:53:21;;;;;;;8.27;2.85;;;;;;;;;;6133322;23;20016;-81
2023/05/03 05:55:47;;;;;;;7.80;2.70;;;;;;;;;;6132924;23;20343;-80
2023/05/03 05:58:13;;;;;;;5.88;2.42;;;;;;;;;;6184776;23;20009;-81
2023/05/03 06:00:39;;;;;;;4.20;2.40;;;;;;;;;;6157755;23;20416;-81
2023/05/03 06:03:05;;;;;;;7.10;2.45;;;;;;;;;;6157536;23;20021;-81
2023/05/03 06:05:31;;;;;;;4.70;2.38;;;;;;;;;;6157496;23;20017;-81
2023/05/03 06:07:57;;;;;;;5.38;2.50;;;;;;;;;;6184203;23;20064;-81
2023/05/03 06:10:23;;;;;;;7.10;2.58;;;;;;;;;;6156873;23;20017;-80
2023/05/03 06:12:50;;;;;;;6.68;2.60;;;;;;;;;;6183784;23;20020;-81
2023/05/03 06:15:16;;;;;;;6.88;2.63;;;;;;;;;;6184308;23;20017;-81
2023/05/03 06:17:42;;;;;;;9.57;2.95;;;;;;;;;;6184059;23;20013;-81
2023/05/03 06:20:10;;;;;;;9.38;2.50;;;;;;;;;;6157410;23;20023;-81
2023/05/03 06:22:36;;;;;;;6.35;2.40;;;;;;;;;;6132605;23;20124;-81
2023/05/03 06:25:02;;;;;;;6.05;2.80;;;;;;;;;;6156552;23;20432;-81
2023/05/03 06:27:29;;;;;;;8.77;2.70;;;;;;;;;;6132528;23;20062;-81
2023/05/03 06:29:55;;;;;;;5.05;2.63;;;;;;;;;;6183975;23;20025;-81
2023/05/03 06:32:22;;;;;;;6.13;2.33;;;;;;;;;;6156792;23;20023;-82
2023/05/03 06:34:48;;;;;;;6.47;2.60;;;;;;;;;;6157241;23;20068;-82
2023/05/03 06:37:15;;;;;;;5.13;2.47;;;;;;;;;;6157446;23;20024;-82
2023/05/03 06:39:41;;;;;;;6.93;2.40;;;;;;;;;;6183142;23;20084;-82
2023/05/03 06:42:07;;;;;;;5.53;1.80;;;;;;;;;;6157049;23;20063;-82
2023/05/03 06:44:33;;;;;;;8.15;2.22;;;;;;;;;;6157123;23;20084;-82
2023/05/03 06:46:59;;;;;;;3.88;1.98;;;;;;;;;;6156945;23;20045;-82
2023/05/03 06:49:25;;;;;;;6.03;1.90;;;;;;;;;;6157420;23;20096;-82
2023/05/03 06:51:51;;;;;;;6.22;2.63;;;;;;;;;;6156912;23;20028;-82
2023/05/03 06:54:18;;;;;;;5.25;1.90;;;;;;;;;;6156411;23;20017;-82
2023/05/03 06:56:45;;;;;;;3.78;1.80;;;;;;;;;;6157115;23;20055;-82
2023/05/03 06:59:11;;;;;;;5.15;1.80;;;;;;;;;;6157029;23;20084;-82
2023/05/03 07:01:37;;;;;;;4.22;1.77;;;;;;;;;;6156918;23;20049;-82
2023/05/03 07:04:03;;;;;;;18.63;3.65;;;;;;;;;;6183476;23;20018;-81
2023/05/03 07:06:30;;;;;;;4.82;1.90;;;;;;;;;;6156911;23;20016;-82
2023/05/03 07:08:56;;;;;;;8.55;1.75;;;;;;;;;;6156451;23;20088;-82
2023/05/03 07:11:22;;;;;;;4.63;1.33;;;;;;;;;;6156617;23;20021;-82
2023/05/03 07:13:52;;;;;;;8.88;2.08;;;;;;;;;;6182794;23;20116;-82
2023/05/03 07:16:18;;;;;;;6.45;1.52;;;;;;;;;;6183528;23;20021;-82
2023/05/03 07:18:45;;;;;;;11.27;2.30;;;;;;;;;;6156932;23;20055;-82
2023/05/03 07:21:12;;;;;;;5.15;1.42;;;;;;;;;;6183634;23;20084;-82
2023/05/03 07:23:38;;;;;;;7.75;1.85;;;;;;;;;;6156002;23;20089;-81
2023/05/03 07:26:04;;;;;;;3.95;1.52;;;;;;;;;;6183496;23;20013;-82
2023/05/03 07:28:33;;;;;;;5.75;1.83;;;;;;;;;;6156695;23;20013;-82
2023/05/03 07:30:59;;;;;;;7.93;1.33;;;;;;;;;;6156650;23;20017;-82
2023/05/03 07:33:25;;;;;;;6.60;1.70;;;;;;;;;;6183324;23;20475;-82
2023/05/03 07:35:51;;;;;;;7.07;1.70;;;;;;;;;;6156413;23;20017;-82
2023/05/03 07:38:17;;;;;;;7.03;1.80;;;;;;;;;;6182764;23;20416;-82
2023/05/03 07:40:43;;;;;;;4.22;1.50;;;;;;;;;;6156794;23;20084;-82
2023/05/03 07:43:10;;;;;;;13.02;1.60;;;;;;;;;;6131565;23;20067;-82
2023/05/03 07:45:36;;;;;;;8.10;1.63;;;;;;;;;;6156660;23;20032;-82
2023/05/03 07:48:03;;;;;;;5.80;1.90;;;;;;;;;;6156621;23;20016;-82
2023/05/03 07:50:29;;;;;;;6.45;1.65;;;;;;;;;;6131974;23;20017;-82
2023/05/03 07:52:55;;;;;;;7.65;1.73;;;;;;;;;;6155908;23;20020;-82
2023/05/03 07:55:21;;;;;;;6.57;1.50;;;;;;;;;;6156381;23;20124;-82
2023/05/03 07:57:48;;;;;;;5.00;1.60;;;;;;;;;;6156614;23;20054;-83
2023/05/03 08:00:16;;;;;;;6.65;1.60;;;;;;;;;;6182727;23;20021;-81
2023/05/03 08:02:42;;;;;;;3.60;1.30;;;;;;;;;;6156319;23;20009;-81
2023/05/03 08:05:08;;;;;;;4.57;1.30;;;;;;;;;;6156330;23;20041;-81
2023/05/03 08:07:34;;;;;;;6.85;1.55;;;;;;;;;;6156043;23;20684;-82
2023/05/03 08:10:01;;;;;;;4.05;1.13;;;;;;;;;;6180560;23;20082;-81
2023/05/03 08:12:27;;;;;;;5.72;1.50;;;;;;;;;;6155699;23;20321;-82
2023/05/03 08:14:56;;;;;;;5.22;1.30;;;;;;;;;;6156184;23;20028;-81
2023/05/03 08:17:22;;;;;;;4.40;1.40;;;;;;;;;;6156102;23;20324;-82
2023/05/03 08:19:49;;;;;;;5.00;1.40;;;;;;;;;;6155994;23;20040;-82
2023/05/03 08:22:15;;;;;;;5.10;1.60;;;;;;;;;;6182102;23;20017;-82
2023/05/03 08:24:42;;;;;;;3.50;1.48;;;;;;;;;;6156219;23;20024;-82
2023/05/03 08:27:09;;;;;;;5.63;1.48;;;;;;;;;;6155660;23;20021;-81
2023/05/03 08:29:36;;;;;;;6.13;1.42;;;;;;;;;;6155838;23;20616;-82
2023/05/03 08:32:03;;;;;;;3.45;1.10;;;;;;;;;;6155701;23;20129;-81
2023/05/03 08:34:29;;;;;;;5.88;1.67;;;;;;;;;;6131071;23;20112;-82
2023/05/03 08:36:56;;;;;;;7.53;1.60;;;;;;;;;;6181805;23;20040;-82
2023/05/03 08:39:23;;;;;;;5.65;2.13;;;;;;;;;;6131370;23;20465;-82
2023/05/03 08:41:50;;;;;;;4.18;1.55;;;;;;;;;;6155775;23;20017;-81
2023/05/03 08:44:27;;;;;;;3.40;1.42;;;;;;;;;;6155752;23;20024;-82
2023/05/03 08:46:53;;;;;;;9.30;1.40;;;;;;;;;;6181928;23;20447;-83
2023/05/03 08:49:20;;;;;;;3.22;1.27;;;;;;;;;;6155285;23;20475;-82
2023/05/03 08:51:47;;;;;;;4.85;1.50;;;;;;;;;;6182738;23;20020;-82
2023/05/03 08:54:14;;;;;;;3.50;1.40;;;;;;;;;;6131050;23;20096;-82
2023/05/03 08:56:41;;;;;;;3.95;1.52;;;;;;;;;;6182328;23;20013;-82
2023/05/03 08:59:08;;;;;;;4.82;1.63;;;;;;;;;;6155755;23;20017;-82
2023/05/03 09:01:37;;;;;;;6.15;1.50;;;;;;;;;;6182165;23;20025;-82
2023/05/03 09:04:04;;;;;;;5.00;1.50;;;;;;;;;;6181234;23;20024;-82
2023/05/03 09:06:33;;;;;;;5.72;1.67;;;;;;;;;;6155404;23;20010;-83
2023/05/03 09:08:59;;;;;;;4.20;1.50;;;;;;;;;;6181619;23;20432;-83
2023/05/03 09:11:29;;;;;;;4.72;1.83;;;;;;;;;;6181862;23;20083;-82
2023/05/03 09:14:07;;;;;;;6.03;1.63;;;;;;;;;;6181293;23;20063;-82
2023/05/03 09:16:33;;;;;;;4.25;1.70;;;;;;;;;;6181636;23;20017;-82
2023/05/03 09:19:00;;;;;;;8.52;1.98;;;;;;;;;;6154191;23;20032;-83
2023/05/03 09:21:27;;;;;;;5.80;1.70;;;;;;;;;;6154914;23;20020;-82
2023/05/03 09:23:53;;;;;;;5.75;2.17;;;;;;;;;;6154882;23;20013;-82
2023/05/03 09:26:32;;;;;;;5.38;1.70;;;;;;;;;;6181647;23;20013;-82
2023/05/03 09:29:02;;;;;;;4.75;1.77;;;;;;;;;;6154962;23;20032;-82
2023/05/03 09:31:29;;;;;;;5.05;2.03;;;;;;;;;;6181453;23;20021;-82
2023/05/03 09:33:56;;;;;;;6.95;2.08;;;;;;;;;;6154241;23;20043;-81
2023/05/03 09:36:26;;;;;;;6.60;1.90;;;;;;;;;;6155495;23;20044;-82
2023/05/03 09:38:52;;;;;;;3.53;1.98;;;;;;;;;;6154829;23;20464;-82
2023/05/03 09:41:28;;;;;;;7.43;2.35;;;;;;;;;;6155289;23;20327;-82
2023/05/03 09:43:55;;;;;;;6.55;1.77;;;;;;;;;;6155311;23;20013;-82
2023/05/03 09:46:23;;;;;;;7.13;1.95;;;;;;;;;;6182022;23;20429;-82
2023/05/03 09:48:51;;;;;;;4.55;1.80;;;;;;;;;;6129892;23;20067;-82
2023/05/03 09:51:18;;;;;;;6.07;1.85;;;;;;;;;;6155530;23;20340;-83
2023/05/03 09:53:44;;;;;;;3.08;1.92;;;;;;;;;;6182048;23;20317;-81
2023/05/03 09:56:14;;;;;;;5.25;1.67;;;;;;;;;;6155185;23;20056;-83
2023/05/03 09:58:40;;;;;;;5.93;1.77;;;;;;;;;;6155036;23;20013;-83
2023/05/03 10:01:06;;;;;;;6.25;2.15;;;;;;;;;;6181850;23;20092;-82
2023/05/03 10:03:35;;;;;;;5.07;1.80;;;;;;;;;;6154280;23;20360;-82
2023/05/03 10:06:03;;;;;;;5.85;1.80;;;;;;;;;;6181874;23;20467;-82
2023/05/03 10:08:31;;;;;;;7.00;2.13;;;;;;;;;;6183426;23;20048;-82
2023/05/03 10:10:58;;;;;;;6.32;2.03;;;;;;;;;;6156807;23;20148;-82
2023/05/03 10:13:24;;;;;;;5.15;2.03;;;;;;;;;;6151370;23;20318;-82
2023/05/03 10:15:56;;;;;;;6.50;2.10;;;;;;;;;;6127378;23;20120;-82
2023/05/03 10:18:25;;;;;;;8.98;2.45;;;;;;;;;;6126729;23;20017;-82
2023/05/03 10:20:56;;;;;;;6.30;1.80;;;;;;;;;;6153682;23;20013;-82
2023/05/03 10:23:25;;;;;;;4.20;1.90;;;;;;;;;;6152097;23;20024;-82
2023/05/03 10:26:06;;;;;;;5.72;2.00;;;;;;;;;;6151930;23;20116;-82
2023/05/03 10:28:38;;;;;;;6.20;2.00;;;;;;;;;;6151547;23;20072;-82
2023/05/03 10:31:04;;;;;;;7.25;2.22;;;;;;;;;;6153363;23;20014;-81
2023/05/03 10:33:33;;;;;;;6.03;2.20;;;;;;;;;;6151674;23;20103;-80
2023/05/03 10:36:04;;;;;;;3.65;1.65;;;;;;;;;;6153669;23;20024;-79
2023/05/03 10:38:31;;;;;;;7.47;1.90;;;;;;;;;;6153323;23;20084;-80
2023/05/03 10:40:58;;;;;;;4.90;1.90;;;;;;;;;;6153305;23;20014;-80
2023/05/03 10:43:31;;;;;;;8.13;2.33;;;;;;;;;;6153155;23;20017;-80
2023/05/03 10:45:57;;;;;;;10.23;2.08;;;;;;;;;;6151004;23;20024;-80
2023/05/03 10:48:23;;;;;;;9.98;2.30;;;;;;;;;;6153189;23;20021;-80
2023/05/03 10:50:50;;;;;;;4.57;1.90;;;;;;;;;;6153143;23;20020;-80
2023/05/03 10:53:32;;;;;;;4.80;1.95;;;;;;;;;;6151224;23;20417;-79
2023/05/03 10:56:10;;;;;;;6.75;2.00;;;;;;;;;;6151391;23;20030;-81
2023/05/03 10:58:37;;;;;;;6.03;2.05;;;;;;;;;;6151109;23;20060;-80
2023/05/03 11:01:08;;;;;;;5.35;1.80;;;;;;;;;;6152790;23;20363;-80
2023/05/03 11:03:41;;;;;;;6.63;2.03;;;;;;;;;;6153364;23;20009;-80
2023/05/03 11:06:07;;;;;;;5.05;1.80;;;;;;;;;;6153098;23;20020;-80
2023/05/03 11:08:36;;;;;;;4.15;1.60;;;;;;;;;;6153121;23;20013;-81
2023/05/03 11:11:11;;;;;;;7.25;2.00;;;;;;;;;;6151545;23;20092;-80
2023/05/03 11:13:38;;;;;;;5.15;2.17;;;;;;;;;;6168660;23;20024;-80
2023/05/03 11:16:04;;;;;;;7.57;2.13;;;;;;;;;;6155706;23;20071;-80
2023/05/03 11:18:31;;;;;;;4.53;2.00;;;;;;;;;;6182880;23;20015;-80
2023/05/03 11:20:58;;;;;;;4.28;1.98;;;;;;;;;;6156699;23;20024;-80
2023/05/03 11:23:27;;;;;;;7.57;2.15;;;;;;;;;;6157081;23;20017;-80
2023/05/03 11:25:54;;;;;;;6.07;2.10;;;;;;;;;;6156803;23;20114;-80
2023/05/03 11:28:20;;;;;;;5.32;1.92;;;;;;;;;;6157048;23;20044;-80
2023/05/03 11:30:46;;;;;;;4.88;2.08;;;;;;;;;;6131852;23;20100;-80
2023/05/03 11:33:12;;;;;;;5.28;1.85;;;;;;;;;;6156813;23;20117;-80
2023/05/03 11:35:39;;;;;;;6.13;2.25;;;;;;;;;;6156993;23;20009;-80
2023/05/03 11:38:05;;;;;;;4.90;1.83;;;;;;;;;;6157043;23;20013;-80
2023/05/03 11:40:31;;;;;;;4.93;1.83;;;;;;;;;;6156514;23;20083;-80
2023/05/03 11:42:58;;;;;;;4.78;1.80;;;;;;;;;;6156689;23;20013;-80
2023/05/03 11:45:32;;;;;;;5.70;2.17;;;;;;;;;;6156491;23;20116;-80
2023/05/03 11:47:58;;;;;;;;;;;;;;;;;;6157122;23;20344;-80
2023/05/03 11:50:43;;;;;;;4.88;2.13;;;;;;;;;;6156218;23;19975;-80
2023/05/03 11:53:10;;;;;;;5.85;2.35;;;;;;;;;;6183362;23;20107;-80
2023/05/03 11:55:38;;;;;;;5.43;2.17;;;;;;;;;;6156647;23;20071;-81
2023/05/03 11:58:04;;;;;;;5.93;2.00;;;;;;;;;;6155829;23;20112;-80
2023/05/03 12:00:30;;;;;;;5.07;1.88;;;;;;;;;;6182978;23;20052;-81
2023/05/03 12:02:58;;;;;;;3.97;2.10;;;;;;;;;;6156570;23;20013;-81
2023/05/03 12:05:24;;;;;;;4.32;1.90;;;;;;;;;;6182895;23;20013;-81
2023/05/03 12:07:51;;;;;;;4.38;1.90;;;;;;;;;;6156979;23;20017;-81
2023/05/03 12:10:18;;;;;;;6.13;1.80;;;;;;;;;;6156505;23;20088;-80
2023/05/03 12:12:58;;;;;;;6.32;2.22;;;;;;;;;;6182411;23;20025;-80
2023/05/03 12:15:31;;;;;;;5.55;2.08;;;;;;;;;;6183142;23;20013;-80
2023/05/03 12:17:58;;;;;;;6.72;2.08;;;;;;;;;;6156649;23;20020;-80
2023/05/03 12:20:25;;;;;;;5.85;2.15;;;;;;;;;;6182887;23;20024;-80
2023/05/03 12:22:52;;;;;;;8.02;2.83;;;;;;;;;;6132041;23;20456;-80
2023/05/03 12:25:18;;;;;;;6.00;2.03;;;;;;;;;;6156326;23;20017;-80
2023/05/03 12:27:44;;;;;;;9.77;2.75;;;;;;;;;;6156077;23;20020;-80
2023/05/03 12:30:11;;;;;;;5.30;2.20;;;;;;;;;;6155817;23;20047;-80
2023/05/03 12:32:37;;;;;;;5.32;2.30;;;;;;;;;;6156877;23;20016;-80
2023/05/03 12:35:10;;;;;;;9.05;2.72;;;;;;;;;;6156293;23;20461;-80
2023/05/03 12:37:36;;;;;;;5.97;2.25;;;;;;;;;;6183104;23;20017;-80
2023/05/03 12:40:06;;;;;;;4.72;2.10;;;;;;;;;;6156113;23;20040;-80
2023/05/03 12:42:32;;;;;;;4.95;2.22;;;;;;;;;;6155874;23;20013;-79
2023/05/03 12:44:58;;;;;;;5.90;2.33;;;;;;;;;;6182978;23;20039;-80
2023/05/03 12:47:25;;;;;;;4.50;2.05;;;;;;;;;;6156288;23;20012;-80
2023/05/03 12:49:51;;;;;;;5.97;2.20;;;;;;;;;;6182728;23;20017;-80
2023/05/03 12:52:17;;;;;;;5.35;2.05;;;;;;;;;;6155633;23;20013;-80
2023/05/03 12:54:45;;;;;;;6.38;2.40;;;;;;;;;;6155701;23;20089;-80
2023/05/03 12:57:11;;;;;;;7.28;2.28;;;;;;;;;;6154719;23;20444;-80
2023/05/03 12:59:38;;;;;;;5.68;2.30;;;;;;;;;;6182294;23;20071;-79
2023/05/03 13:02:04;;;;;;;5.63;2.30;;;;;;;;;;6155713;23;20013;-80
2023/05/03 13:04:32;;;;;;;5.63;2.35;;;;;;;;;;6131378;23;20013;-79
2023/05/03 13:06:58;;;;;;;7.70;3.13;;;;;;;;;;6156020;23;20080;-80
2023/05/03 13:09:24;;;;;;;5.72;2.35;;;;;;;;;;6182486;23;20017;-80
2023/05/03 13:11:53;;;;;;;7.13;2.58;;;;;;;;;;6155471;23;20059;-79
2023/05/03 13:14:20;;;;;;;8.45;2.90;;;;;;;;;;6154313;23;20088;-80
2023/05/03 13:16:47;;;;;;;9.57;2.63;;;;;;;;;;6155324;23;20021;-81
2023/05/03 13:19:14;;;;;;;8.13;2.65;;;;;;;;;;6155801;23;20112;-79
2023/05/03 13:21:40;;;;;;;4.82;2.30;;;;;;;;;;6182685;23;20325;-82
2023/05/03 13:24:06;;;;;;;8.23;2.80;;;;;;;;;;6155802;23;20077;-81
2023/05/03 13:26:32;;;;;;;9.15;2.88;;;;;;;;;;6154931;23;20009;-82
2023/05/03 13:28:58;;;;;;;7.07;2.85;;;;;;;;;;6181970;23;20443;-83
2023/05/03 13:31:29;;;;;;;7.20;3.17;;;;;;;;;;6182431;23;20071;-82
2023/05/03 13:33:55;;;;;;;7.55;2.78;;;;;;;;;;6131038;23;20059;-82
2023/05/03 13:36:25;;;;;;;10.13;3.00;;;;;;;;;;6182562;23;20013;-82
2023/05/03 13:38:52;;;;;;;7.22;3.50;;;;;;;;;;6155608;23;20468;-82
2023/05/03 13:41:18;;;;;;;6.53;2.70;;;;;;;;;;6182801;23;20467;-82
2023/05/03 13:43:44;;;;;;;5.22;2.58;;;;;;;;;;6158080;23;20359;-82
2023/05/03 13:46:11;;;;;;;12.13;2.83;;;;;;;;;;6157759;23;20040;-82
2023/05/03 13:48:37;;;;;;;4.65;2.80;;;;;;;;;;6184552;23;20017;-82
2023/05/03 13:51:10;;;;;;;9.50;3.03;;;;;;;;;;6157728;23;20093;-83
2023/05/03 13:53:36;;;;;;;6.30;2.90;;;;;;;;;;6157178;23;20196;-81
2023/05/03 13:56:02;;;;;;;6.78;2.50;;;;;;;;;;6157496;23;20076;-82
2023/05/03 13:58:28;;;;;;;4.88;2.35;;;;;;;;;;6184514;23;20060;-82
2023/05/03 14:00:54;;;;;;;7.65;3.00;;;;;;;;;;6157397;23;20029;-82
2023/05/03 14:03:21;;;;;;;7.90;3.20;;;;;;;;;;6157559;23;20405;-82
2023/05/03 14:05:47;;;;;;;6.32;2.80;;;;;;;;;;6157228;23;20052;-82
2023/05/03 14:08:13;;;;;;;9.93;3.42;;;;;;;;;;6183628;23;20016;-82
2023/05/03 14:10:39;;;;;;;8.18;3.10;;;;;;;;;;6157389;23;20020;-82
2023/05/03 14:13:06;;;;;;;5.38;2.60;;;;;;;;;;6183274;23;20088;-82
2023/05/03 14:15:32;;;;;;;6.38;2.83;;;;;;;;;;6184077;23;20013;-82
2023/05/03 14:17:58;;;;;;;8.15;3.22;;;;;;;;;;6157779;23;20138;-82
2023/05/03 14:20:24;;;;;;;14.40;3.80;;;;;;;;;;6132643;23;20013;-83
2023/05/03 14:22:50;;;;;;;5.18;3.10;;;;;;;;;;6183657;23;20017;-82
2023/05/03 14:25:16;;;;;;;5.72;2.90;;;;;;;;;;6156599;23;20079;-81
2023/05/03 14:27:42;;;;;;;6.63;3.25;;;;;;;;;;6157078;23;20459;-81
2023/05/03 14:30:09;;;;;;;8.77;3.08;;;;;;;;;;6183482;23;20017;-81
2023/05/03 14:32:35;;;;;;;5.85;2.60;;;;;;;;;;6183749;23;20013;-82
2023/05/03 14:35:01;;;;;;;6.00;2.45;;;;;;;;;;6156766;23;20092;-83
2023/05/03 14:37:27;;;;;;;6.88;3.22;;;;;;;;;;6156143;23;20021;-82
2023/05/03 14:39:53;;;;;;;6.38;2.38;;;;;;;;;;6131151;23;20033;-84